Time;durP1;ratioP1;P1;durP2;ratioP2;P2;SDS_P1;SDS_P2;PMS_P1;PMS_P2;Temp;Humidity;BMP_temperature;BMP_pressure;BME280_temperature;BME280_humidity;BME280_pressure;Samples;Min_cycle;Max_cycle;Signal;HPM_P1;HPM_P2
2022/04/12 00:00:41;;;;;;;7.05;6.35;;;;;;;9.18;64.47;101168.31;5116684;28;20032;-78
2022/04/12 00:03:07;;;;;;;9.35;6.60;;;;;;;9.18;64.31;101160.50;5100625;28;20056;-78
2022/04/12 00:05:37;;;;;;;8.38;6.10;;;;;;;9.19;63.95;101167.44;5117850;28;20036;-77
2022/04/12 00:08:04;;;;;;;10.02;6.72;;;;;;;9.19;64.32;101170.06;5123921;28;20023;-78
2022/04/12 00:10:31;;;;;;;7.18;6.18;;;;;;;9.19;64.33;101167.44;5088990;28;20039;-78
2022/04/12 00:12:58;;;;;;;7.03;6.30;;;;;;;9.20;64.32;101171.75;5105980;28;20035;-78
2022/04/12 00:15:24;;;;;;;7.03;6.32;;;;;;;9.20;64.52;101169.13;5112307;28;20095;-78
2022/04/12 00:20:33;;;;;;;6.82;6.13;;;;;;;9.21;64.45;101173.47;5109657;28;20358;-78
2022/04/12 00:22:59;;;;;;;10.45;6.55;;;;;;;9.19;64.63;101167.44;5124071;28;20047;-77
2022/04/12 00:25:26;;;;;;;7.30;6.63;;;;;;;9.17;64.21;101170.09;5103975;28;20043;-77
2022/04/12 00:27:53;;;;;;;8.45;6.50;;;;;;;9.17;64.28;101162.25;5105021;28;20020;-78
2022/04/12 00:30:19;;;;;;;7.25;6.55;;;;;;;9.10;64.29;101163.34;5105163;28;20102;-78
2022/04/12 00:32:50;;;;;;;7.35;6.43;;;;;;;9.11;64.20;101166.78;5122987;28;20044;-78
2022/04/12 00:35:16;;;;;;;7.13;5.90;;;;;;;9.06;64.54;101164.34;5113395;28;20042;-78
2022/04/12 00:37:42;;;;;;;7.25;6.53;;;;;;;9.02;64.51;101163.56;5123462;28;20091;-77
2022/04/12 00:40:08;;;;;;;7.13;6.05;;;;;;;9.06;64.78;101166.06;5067932;28;20090;-78
2022/04/12 00:42:34;;;;;;;7.15;6.40;;;;;;;9.06;64.50;101164.34;5115760;27;20031;-78
2022/04/12 00:44:59;;;;;;;8.27;6.63;;;;;;;9.08;64.80;101166.88;5123729;28;20063;-78
2022/04/12 00:47:25;;;;;;;6.30;5.70;;;;;;;9.08;64.78;101161.66;5104156;28;20226;-78
2022/04/12 00:49:51;;;;;;;8.10;6.78;;;;;;;9.05;64.74;101156.53;5104775;28;20220;-77
2022/04/12 00:52:17;;;;;;;6.78;6.18;;;;;;;9.02;64.98;101150.50;5104562;28;20051;-78
2022/04/12 00:54:44;;;;;;;8.30;6.65;;;;;;;9.00;65.40;101154.03;5122421;28;20050;-78
2022/04/12 00:57:11;;;;;;;9.88;7.53;;;;;;;8.98;65.30;101145.41;5105024;28;20046;-78
2022/04/12 00:59:37;;;;;;;7.90;6.93;;;;;;;8.97;65.40;101138.47;5103299;28;20094;-78
2022/04/12 01:04:51;;;;;;;8.38;6.53;;;;;;;8.88;65.71;101150.03;5096967;27;20255;-78
2022/04/12 01:07:17;;;;;;;6.68;5.70;;;;;;;8.91;65.67;101138.63;5069146;28;20039;-78
2022/04/12 01:09:42;;;;;;;7.85;6.45;;;;;;;8.83;65.86;101138.88;5083683;28;20035;-78
2022/04/12 01:12:09;;;;;;;7.45;6.70;;;;;;;8.83;66.15;101136.25;5084010;28;20119;-77
2022/04/12 01:14:35;;;;;;;10.45;7.10;;;;;;;8.82;66.16;101132.78;5064259;28;20295;-77
2022/04/12 01:17:07;;;;;;;8.15;6.70;;;;;;;8.82;66.34;101134.53;5086766;28;20036;-77
2022/04/12 01:19:33;;;;;;;8.68;6.90;;;;;;;8.79;66.47;101139.88;5095633;28;20047;-78
2022/04/12 01:22:04;;;;;;;7.38;6.53;;;;;;;8.76;66.48;101143.41;5122402;28;20405;-78
2022/04/12 01:24:32;;;;;;;7.05;6.35;;;;;;;8.73;66.97;101137.41;5099687;28;20020;-78
2022/04/12 01:26:58;;;;;;;7.18;6.50;;;;;;;8.73;66.79;101146.13;5052844;28;20096;-78
2022/04/12 01:29:24;;;;;;;6.95;6.07;;;;;;;8.71;67.00;101137.44;5104625;28;20059;-78
2022/04/12 01:31:50;;;;;;;7.85;6.25;;;;;;;8.70;66.81;101134.91;5103800;28;20268;-78
2022/04/12 01:34:15;;;;;;;6.90;6.30;;;;;;;8.71;66.89;101132.22;5083594;28;20152;-78
2022/04/12 01:36:40;;;;;;;7.43;6.72;;;;;;;8.64;66.96;101131.56;5103920;28;20040;-78
2022/04/12 01:39:06;;;;;;;7.20;6.47;;;;;;;8.64;66.88;101130.69;5106655;28;20090;-78
2022/04/12 01:41:31;;;;;;;11.45;6.53;;;;;;;8.64;67.08;101126.34;5095337;28;20660;-78
2022/04/12 01:43:57;;;;;;;7.43;6.60;;;;;;;8.64;66.96;101122.84;5104706;28;20040;-78
2022/04/12 01:46:22;;;;;;;6.85;6.18;;;;;;;8.63;67.10;101129.84;5093077;28;20066;-78
2022/04/12 01:48:49;;;;;;;7.05;6.35;;;;;;;8.65;66.86;101132.41;5090812;28;20269;-78
2022/04/12 01:51:15;;;;;;;6.88;6.28;;;;;;;8.63;66.87;101129.84;5101261;28;20058;-78
2022/04/12 01:53:40;;;;;;;7.10;6.38;;;;;;;8.64;66.99;101125.47;5090915;28;20215;-78
2022/04/12 01:56:06;;;;;;;7.07;6.38;;;;;;;8.59;67.26;101115.16;5086079;28;20089;-78
2022/04/12 01:58:32;;;;;;;7.97;6.32;;;;;;;8.59;67.08;101114.31;5066117;28;20031;-78
2022/04/12 02:00:58;;;;;;;7.68;6.03;;;;;;;8.50;67.53;101118.03;5100739;28;20032;-78
2022/04/12 02:03:24;;;;;;;8.75;6.10;;;;;;;8.48;67.32;101114.59;5105515;28;20059;-78
2022/04/12 02:05:51;;;;;;;7.47;6.53;;;;;;;8.46;67.51;101116.41;5104771;28;20416;-78
2022/04/12 02:08:16;;;;;;;7.57;5.97;;;;;;;8.44;67.36;101121.66;5103924;28;20054;-78
2022/04/12 02:10:42;;;;;;;7.13;6.43;;;;;;;8.42;67.64;101112.16;5087678;28;20327;-78
2022/04/12 02:13:07;;;;;;;9.50;6.47;;;;;;;8.41;67.57;101113.03;5083861;28;20399;-77
2022/04/12 02:15:33;;;;;;;8.95;6.57;;;;;;;8.41;67.47;101115.63;5093099;28;20039;-78
2022/04/12 02:17:58;;;;;;;6.20;5.70;;;;;;;8.42;67.42;101110.41;5103824;28;20035;-78
2022/04/12 02:20:24;;;;;;;8.55;6.78;;;;;;;8.39;67.45;101093.94;5103145;28;20058;-77
2022/04/12 02:22:49;;;;;;;8.02;6.20;;;;;;;8.36;67.62;101088.81;5119960;27;20039;-77
2022/04/12 02:25:15;;;;;;;6.47;5.88;;;;;;;8.33;67.69;101089.75;5104409;27;20030;-78
2022/04/12 02:27:40;;;;;;;10.88;6.40;;;;;;;8.28;68.12;101086.41;5127369;27;20035;-78
2022/04/12 02:30:06;;;;;;;6.82;6.07;;;;;;;8.27;67.96;101082.06;5103164;28;20027;-77
2022/04/12 02:32:32;;;;;;;10.20;6.38;;;;;;;8.29;67.88;101092.47;5102736;28;20382;-78
2022/04/12 02:35:00;;;;;;;8.27;6.38;;;;;;;8.24;67.93;101089.97;5102955;28;20059;-78
2022/04/12 02:37:28;;;;;;;7.03;6.33;;;;;;;8.22;68.00;101086.56;5133570;27;20058;-78
2022/04/12 02:39:54;;;;;;;8.63;6.65;;;;;;;8.22;68.01;101083.94;5109495;28;20106;-78
2022/04/12 02:42:19;;;;;;;6.30;5.63;;;;;;;8.22;67.96;101082.22;5087069;28;20106;-78
2022/04/12 02:44:45;;;;;;;6.95;5.97;;;;;;;8.22;67.95;101063.97;5109356;28;20031;-78
2022/04/12 02:47:10;;;;;;;6.28;5.78;;;;;;;8.18;68.25;101059.69;5117698;27;20319;-78
2022/04/12 02:49:36;;;;;;;7.70;6.38;;;;;;;8.22;67.82;101065.69;5107927;28;20097;-77
2022/04/12 02:52:01;;;;;;;7.20;6.03;;;;;;;8.16;68.00;101061.50;5110332;27;20090;-77
2022/04/12 02:54:27;;;;;;;6.22;5.63;;;;;;;8.15;68.22;101053.72;5086498;28;20339;-78
2022/04/12 02:56:52;;;;;;;6.63;5.93;;;;;;;8.15;67.99;101053.72;5122729;27;20061;-78
2022/04/12 02:59:18;;;;;;;7.38;5.70;;;;;;;8.11;68.43;101052.94;5122833;27;20040;-78
2022/04/12 03:01:44;;;;;;;6.63;5.72;;;;;;;8.06;68.16;101054.84;5094121;27;20037;-78
2022/04/12 03:04:09;;;;;;;7.00;5.97;;;;;;;8.05;68.31;101056.56;5120572;28;20082;-78
2022/04/12 03:06:35;;;;;;;8.07;5.85;;;;;;;8.04;68.51;101061.81;5120995;28;20390;-78
2022/04/12 03:09:00;;;;;;;5.85;5.35;;;;;;;8.04;68.38;101056.59;5137847;27;20220;-78
2022/04/12 03:11:25;;;;;;;7.00;6.18;;;;;;;8.03;68.36;101058.38;5101916;28;20094;-78
2022/04/12 03:13:52;;;;;;;7.70;5.50;;;;;;;8.02;68.23;101053.19;5102344;28;20044;-78
2022/04/12 03:16:18;;;;;;;6.13;5.55;;;;;;;8.04;68.35;101051.38;5085253;28;20063;-78
2022/04/12 03:18:43;;;;;;;6.72;5.45;;;;;;;8.06;68.17;101057.44;5102688;28;20035;-78
2022/04/12 03:21:09;;;;;;;6.15;5.55;;;;;;;8.07;68.25;101067.81;5102376;28;20339;-78
2022/04/12 03:23:34;;;;;;;7.13;5.65;;;;;;;8.04;68.14;101069.63;5101792;28;20039;-78
2022/04/12 03:26:00;;;;;;;5.95;5.13;;;;;;;8.08;68.23;101066.06;5127469;27;20081;-78
2022/04/12 03:28:25;;;;;;;8.45;5.88;;;;;;;8.06;67.82;101047.84;5101490;28;20032;-78
2022/04/12 03:30:51;;;;;;;6.05;5.45;;;;;;;8.06;67.78;101044.41;5120363;27;20035;-78
2022/04/12 03:33:16;;;;;;;5.22;4.82;;;;;;;8.03;67.69;101050.53;5100737;28;20374;-78
2022/04/12 03:35:43;;;;;;;6.00;5.50;;;;;;;8.02;67.83;101048.84;5102381;28;20039;-78
2022/04/12 03:38:08;;;;;;;5.75;5.03;;;;;;;8.00;67.91;101040.19;5101915;28;20040;-78
2022/04/12 03:40:34;;;;;;;5.05;4.65;;;;;;;8.00;67.74;101040.19;5102093;28;20040;-78
2022/04/12 03:43:04;;;;;;;6.47;5.22;;;;;;;8.01;67.83;101043.66;5070550;27;20042;-78
2022/04/12 03:45:31;;;;;;;7.43;4.90;;;;;;;8.00;68.00;101054.97;5139825;27;20031;-78
2022/04/12 03:47:57;;;;;;;6.00;5.20;;;;;;;8.04;68.11;101067.91;5096415;28;20076;-78
2022/04/12 03:50:23;;;;;;;6.47;5.50;;;;;;;8.03;67.75;101073.16;5080989;28;20040;-78
2022/04/12 03:52:49;;;;;;;5.68;5.07;;;;;;;8.05;67.65;101069.59;5115575;28;20054;-78
2022/04/12 03:55:14;;;;;;;6.32;4.47;;;;;;;8.10;67.49;101081.69;5084312;28;20270;-78
2022/04/12 03:57:40;;;;;;;4.95;4.55;;;;;;;8.13;67.70;101092.91;5101406;28;20069;-78
2022/04/12 04:00:08;;;;;;;4.35;3.95;;;;;;;8.17;67.54;101089.31;5108475;28;20039;-78
2022/04/12 04:02:37;;;;;;;5.03;4.30;;;;;;;8.22;67.68;101091.78;5119216;28;20054;-78
2022/04/12 04:05:03;;;;;;;4.30;3.90;;;;;;;8.23;67.51;101083.06;5117857;28;20371;-78
2022/04/12 04:07:29;;;;;;;5.70;4.07;;;;;;;8.24;67.42;101075.19;5119437;28;20034;-78
2022/04/12 04:09:55;;;;;;;5.93;4.40;;;;;;;8.24;67.29;101067.38;5130027;27;20035;-78
2022/04/12 04:12:20;;;;;;;5.57;4.70;;;;;;;8.22;67.14;101061.34;5128395;27;20043;-78
2022/04/12 04:14:47;;;;;;;8.23;4.25;;;;;;;8.21;67.11;101054.41;5101281;28;20051;-78
2022/04/12 04:17:12;;;;;;;7.53;5.57;;;;;;;8.12;67.12;101049.44;5130639;27;20035;-78
2022/04/12 04:19:38;;;;;;;12.15;5.20;;;;;;;8.05;67.62;101038.31;5117288;28;20062;-78
2022/04/12 04:22:04;;;;;;;5.38;4.88;;;;;;;8.00;67.75;101021.06;5101080;28;20365;-78
2022/04/12 04:24:29;;;;;;;5.65;5.15;;;;;;;7.93;68.00;101023.00;5118192;28;20063;-78
2022/04/12 04:26:57;;;;;;;5.63;5.13;;;;;;;7.86;68.29;101029.28;5100562;28;20050;-78
2022/04/12 04:29:23;;;;;;;9.60;5.33;;;;;;;7.85;68.32;101031.00;5099777;28;20385;-78
2022/04/12 04:31:52;;;;;;;5.70;5.20;;;;;;;7.84;68.73;101041.47;5119287;28;20076;-78
2022/04/12 04:34:17;;;;;;;7.35;5.25;;;;;;;7.84;68.59;101037.13;5118450;28;20043;-78
2022/04/12 04:36:43;;;;;;;7.10;5.20;;;;;;;7.82;68.51;101035.44;5100883;28;20034;-78
2022/04/12 04:39:08;;;;;;;7.53;5.57;;;;;;;7.82;68.55;101022.41;5100410;28;20066;-79
2022/04/12 04:41:34;;;;;;;5.47;5.07;;;;;;;7.76;68.67;101019.97;5118869;28;20059;-78
2022/04/12 04:44:00;;;;;;;9.73;5.13;;;;;;;7.75;68.51;101024.34;5118762;28;20045;-78
2022/04/12 04:46:26;;;;;;;5.25;4.78;;;;;;;7.75;68.74;101034.78;5082883;28;20037;-78
2022/04/12 04:48:51;;;;;;;5.88;5.10;;;;;;;7.78;68.74;101029.47;5113829;28;20035;-78
2022/04/12 04:51:17;;;;;;;6.22;4.70;;;;;;;7.80;68.71;101021.59;5097930;28;20243;-78
2022/04/12 04:53:45;;;;;;;6.50;5.05;;;;;;;7.81;68.75;101026.78;5098151;28;20205;-78
2022/04/12 04:56:10;;;;;;;8.37;5.37;;;;;;;7.80;68.52;101026.81;5062657;28;20032;-78
2022/04/12 04:58:36;;;;;;;4.78;4.38;;;;;;;7.82;68.72;101025.03;5080698;28;20123;-78
2022/04/12 05:01:01;;;;;;;5.70;5.20;;;;;;;7.80;68.45;101029.44;5081281;28;20035;-78
2022/04/12 05:03:27;;;;;;;6.50;5.68;;;;;;;7.79;68.39;101031.19;5098043;28;20083;-78
2022/04/12 05:05:53;;;;;;;5.25;4.85;;;;;;;7.81;68.49;101039.81;5081321;28;20302;-78
2022/04/12 05:08:18;;;;;;;5.28;4.85;;;;;;;7.81;68.59;101033.75;5116202;28;20039;-78
2022/04/12 05:10:43;;;;;;;7.38;5.38;;;;;;;7.81;68.62;101033.75;5097907;28;20070;-78
2022/04/12 05:13:09;;;;;;;7.68;5.57;;;;;;;7.79;68.34;101032.94;5100815;28;20374;-78
2022/04/12 05:15:34;;;;;;;5.85;4.90;;;;;;;7.81;68.53;101038.97;5097774;28;20077;-78
2022/04/12 05:18:00;;;;;;;5.50;4.88;;;;;;;7.78;68.40;101042.50;5079778;28;20055;-78
2022/04/12 05:20:26;;;;;;;6.03;5.13;;;;;;;7.80;68.49;101048.53;5080474;28;20036;-78
2022/04/12 05:22:52;;;;;;;5.28;4.75;;;;;;;7.83;68.44;101045.84;5116289;28;20039;-78
2022/04/12 05:25:18;;;;;;;4.72;4.32;;;;;;;7.86;68.47;101055.34;5094728;28;20062;-78
2022/04/12 05:27:44;;;;;;;4.53;4.13;;;;;;;7.87;68.47;101065.72;5080857;28;20104;-78
2022/04/12 05:30:11;;;;;;;4.95;4.55;;;;;;;7.92;68.49;101062.16;5079499;28;20043;-78
2022/04/12 05:32:37;;;;;;;5.20;4.80;;;;;;;7.92;68.49;101073.44;5114726;28;20389;-78
2022/04/12 05:35:03;;;;;;;4.40;4.07;;;;;;;7.96;68.47;101067.25;5096504;28;20027;-78
2022/04/12 05:37:31;;;;;;;6.13;4.30;;;;;;;7.97;68.50;101061.16;5115379;28;20342;-78
2022/04/12 05:39:56;;;;;;;4.53;4.10;;;;;;;7.99;68.49;101051.53;5115367;28;20051;-78
2022/04/12 05:42:23;;;;;;;9.57;5.75;;;;;;;7.94;68.41;101045.56;5096431;28;20251;-78
2022/04/12 05:44:48;;;;;;;5.20;4.80;;;;;;;7.92;68.70;101036.94;5096661;28;20039;-78
2022/04/12 05:47:14;;;;;;;7.43;5.57;;;;;;;7.89;69.00;101044.81;5095390;28;20521;-78
2022/04/12 05:49:39;;;;;;;6.32;5.07;;;;;;;7.86;69.11;101048.38;5115052;28;20353;-78
2022/04/12 05:52:05;;;;;;;7.35;5.63;;;;;;;7.84;69.33;101050.19;5097381;28;20039;-78
2022/04/12 05:54:31;;;;;;;5.82;5.32;;;;;;;7.86;69.09;101060.56;5114646;28;20031;-78
2022/04/12 05:56:56;;;;;;;7.07;5.45;;;;;;;7.88;69.45;101049.19;5080160;28;20047;-78
2022/04/12 05:59:22;;;;;;;7.78;5.43;;;;;;;7.90;69.50;101040.50;5120652;27;20161;-78
2022/04/12 06:01:49;;;;;;;5.90;5.40;;;;;;;7.85;69.38;101035.38;5092351;28;20227;-79
2022/04/12 06:04:14;;;;;;;6.45;5.63;;;;;;;7.86;69.46;101031.88;5079966;28;20352;-79
2022/04/12 06:06:41;;;;;;;5.93;5.13;;;;;;;7.91;69.30;101042.19;5097577;28;20046;-78
2022/04/12 06:09:07;;;;;;;10.57;5.60;;;;;;;7.86;69.73;101035.34;5116568;28;20267;-79
2022/04/12 06:11:32;;;;;;;8.07;5.35;;;;;;;7.87;69.92;101028.38;5093939;28;20028;-79
2022/04/12 06:13:58;;;;;;;7.50;5.40;;;;;;;7.88;69.93;101038.75;5114304;28;20316;-79
2022/04/12 06:16:24;;;;;;;7.68;5.97;;;;;;;7.94;69.69;101049.94;5115675;28;20050;-79
2022/04/12 06:18:49;;;;;;;6.53;5.15;;;;;;;7.96;69.79;101048.97;5080635;28;20027;-79
2022/04/12 06:21:15;;;;;;;8.68;5.22;;;;;;;8.00;69.74;101057.59;5096133;28;20114;-79
2022/04/12 06:23:40;;;;;;;5.47;4.72;;;;;;;8.06;69.61;101062.66;5080214;28;20043;-79
2022/04/12 06:26:06;;;;;;;9.02;5.45;;;;;;;8.04;69.21;101049.66;5109445;28;20043;-79
2022/04/12 06:28:32;;;;;;;6.22;5.25;;;;;;;8.08;69.10;101050.44;5102447;28;20039;-79
2022/04/12 06:30:59;;;;;;;8.32;5.25;;;;;;;8.12;69.03;101054.66;5080539;28;20028;-79
2022/04/12 06:33:25;;;;;;;9.85;5.72;;;;;;;8.14;69.29;101062.44;5072374;28;20035;-79
2022/04/12 06:35:51;;;;;;;9.10;5.70;;;;;;;8.15;69.39;101057.19;5083506;28;20035;-79
2022/04/12 06:38:16;;;;;;;7.97;5.15;;;;;;;8.16;69.56;101053.66;5106920;28;20045;-79
2022/04/12 06:40:44;;;;;;;5.72;5.22;;;;;;;8.23;69.47;101046.53;5113189;28;20350;-79
2022/04/12 06:43:10;;;;;;;6.38;5.18;;;;;;;8.26;69.62;101049.91;5097532;28;20048;-79
2022/04/12 06:45:36;;;;;;;5.97;5.38;;;;;;;8.31;69.44;101051.53;5095098;28;20235;-79
2022/04/12 06:48:01;;;;;;;6.68;5.72;;;;;;;8.35;69.37;101045.31;5098072;28;20362;-79
2022/04/12 06:50:28;;;;;;;6.75;5.70;;;;;;;8.38;69.33;101045.25;5079516;28;20336;-79
2022/04/12 06:52:55;;;;;;;10.35;6.10;;;;;;;8.39;69.21;101046.97;5127537;28;20282;-79
2022/04/12 06:55:21;;;;;;;6.95;6.22;;;;;;;8.40;69.38;101053.88;5113185;28;20046;-79
2022/04/12 06:57:46;;;;;;;7.85;5.97;;;;;;;8.40;69.36;101043.44;5093379;28;20039;-79
2022/04/12 07:00:12;;;;;;;6.28;5.68;;;;;;;8.45;69.16;101039.00;5065677;28;20335;-78
2022/04/12 07:02:38;;;;;;;6.00;5.40;;;;;;;8.49;69.41;101037.16;5078891;28;20084;-78
2022/04/12 07:05:05;;;;;;;9.32;6.20;;;;;;;8.51;69.40;101036.19;5110382;28;20047;-79
2022/04/12 07:07:31;;;;;;;7.10;6.30;;;;;;;8.55;69.81;101045.66;5086965;28;20372;-79
2022/04/12 07:09:57;;;;;;;7.07;6.35;;;;;;;8.57;69.50;101040.41;5107866;28;20039;-79
2022/04/12 07:12:23;;;;;;;11.32;5.78;;;;;;;8.63;69.53;101042.81;5109913;28;20327;-79
2022/04/12 07:14:48;;;;;;;6.82;5.45;;;;;;;8.65;69.23;101047.09;5091675;28;20389;-79
2022/04/12 07:17:14;;;;;;;6.25;5.57;;;;;;;8.71;69.33;101051.28;5105016;28;20035;-79
2022/04/12 07:19:39;;;;;;;7.00;5.38;;;;;;;8.75;69.33;101049.44;5115226;28;20035;-79
2022/04/12 07:22:05;;;;;;;6.70;5.38;;;;;;;8.77;69.35;101037.22;5089410;28;20118;-79
2022/04/12 07:24:31;;;;;;;6.13;5.53;;;;;;;8.81;69.41;101047.50;5076685;28;20109;-79
2022/04/12 07:26:56;;;;;;;8.02;5.85;;;;;;;8.87;69.62;101046.47;5078784;28;20035;-79
2022/04/12 07:29:22;;;;;;;6.20;5.35;;;;;;;8.91;69.50;101048.06;5109590;27;20254;-79
2022/04/12 07:31:47;;;;;;;6.45;5.68;;;;;;;8.94;69.60;101047.97;5093577;28;20429;-81
2022/04/12 07:34:13;;;;;;;7.05;5.95;;;;;;;8.98;69.11;101052.19;5093501;28;20040;-79
2022/04/12 07:36:43;;;;;;;5.88;5.38;;;;;;;9.03;69.17;101045.09;5086284;28;20034;-79
2022/04/12 07:39:09;;;;;;;9.48;6.30;;;;;;;9.07;69.08;101047.63;5110968;28;20072;-79
2022/04/12 07:41:34;;;;;;;7.20;6.20;;;;;;;9.12;69.18;101043.09;5092880;28;20305;-79
2022/04/12 07:44:00;;;;;;;6.65;5.95;;;;;;;9.16;69.17;101042.09;5110136;27;20111;-79
2022/04/12 07:46:25;;;;;;;7.65;6.05;;;;;;;9.21;69.03;101048.03;5103859;28;20106;-79
2022/04/12 07:48:50;;;;;;;5.25;4.75;;;;;;;9.24;69.18;101032.28;5081799;28;20218;-79
2022/04/12 07:51:16;;;;;;;7.90;5.95;;;;;;;9.30;69.08;101034.69;5082922;28;20104;-79
2022/04/12 07:53:41;;;;;;;6.82;5.90;;;;;;;9.37;69.03;101022.28;5078699;27;20318;-79
2022/04/12 07:56:06;;;;;;;6.47;5.80;;;;;;;9.41;69.16;101024.72;5088530;28;20032;-79
2022/04/12 07:58:32;;;;;;;6.65;5.68;;;;;;;9.45;69.18;101028.09;5081361;28;20173;-79
2022/04/12 08:00:57;;;;;;;8.55;6.00;;;;;;;9.53;69.01;101035.66;5061921;28;20335;-79
2022/04/12 08:03:23;;;;;;;6.13;5.60;;;;;;;9.58;69.16;101046.84;5090441;28;20048;-79
2022/04/12 08:05:49;;;;;;;5.80;5.30;;;;;;;9.63;68.96;101059.78;5067545;27;20043;-79
2022/04/12 08:08:14;;;;;;;6.85;5.78;;;;;;;9.67;69.06;101056.13;5116887;27;20044;-79
2022/04/12 08:10:40;;;;;;;6.90;5.50;;;;;;;9.72;68.96;101059.47;5115011;27;20352;-79
2022/04/12 08:13:05;;;;;;;6.60;4.90;;;;;;;9.77;68.63;101070.63;5105963;28;20031;-79
2022/04/12 08:15:30;;;;;;;7.22;5.80;;;;;;;9.81;68.82;101067.00;5103275;28;20335;-79
2022/04/12 08:17:56;;;;;;;6.13;5.53;;;;;;;9.84;69.05;101060.78;5090314;28;20331;-79
2022/04/12 08:20:22;;;;;;;6.97;6.20;;;;;;;9.87;69.07;101055.47;5104586;28;20039;-79
2022/04/12 08:22:48;;;;;;;8.85;5.30;;;;;;;9.92;68.97;101048.31;5096203;28;20032;-79
2022/04/12 08:25:14;;;;;;;14.48;5.93;;;;;;;9.96;69.00;101048.16;5103235;27;20027;-79
2022/04/12 08:27:39;;;;;;;6.03;5.38;;;;;;;10.02;68.88;101049.69;5107244;27;20044;-79
2022/04/12 08:30:07;;;;;;;7.43;5.80;;;;;;;10.08;68.74;101056.50;5073508;28;20362;-79
2022/04/12 08:32:35;;;;;;;6.22;5.60;;;;;;;10.14;69.12;101056.28;5081826;28;20039;-79
2022/04/12 08:35:00;;;;;;;7.82;6.00;;;;;;;10.20;68.68;101053.41;5109633;28;20043;-79
2022/04/12 08:37:26;;;;;;;7.68;6.38;;;;;;;10.26;69.01;101048.00;5109868;27;20022;-79
2022/04/12 08:39:51;;;;;;;6.00;5.40;;;;;;;10.33;68.55;101046.91;5098942;28;20041;-79
2022/04/12 08:42:17;;;;;;;10.85;5.72;;;;;;;10.39;68.65;101037.97;5098755;28;20310;-79
2022/04/12 08:44:46;;;;;;;7.35;6.07;;;;;;;10.45;68.36;101040.34;5094565;28;20201;-79
2022/04/12 08:47:14;;;;;;;;;;;;;;;10.52;68.63;101036.59;5088040;28;20334;-79
2022/04/12 08:49:40;;;;;;;6.60;5.32;;;;;;;10.57;68.09;101028.56;5095640;28;19995;-79
2022/04/12 08:52:11;;;;;;;12.13;6.47;;;;;;;10.62;68.32;101029.22;5096112;28;20090;-79
2022/04/12 08:54:44;;;;;;;8.30;5.50;;;;;;;10.67;68.07;101023.81;5125331;27;20039;-79
2022/04/12 08:57:11;;;;;;;6.43;5.55;;;;;;;10.73;68.34;101008.75;5076083;28;20039;-79
2022/04/12 08:59:38;;;;;;;6.03;5.43;;;;;;;10.83;68.15;101003.13;5091270;27;20047;-79
2022/04/12 09:02:07;;;;;;;7.93;5.63;;;;;;;10.89;67.50;100990.63;5115734;27;20038;-79
2022/04/12 09:04:33;;;;;;;6.53;5.47;;;;;;;10.95;67.61;100990.41;5090304;28;20153;-79
2022/04/12 09:07:00;;;;;;;9.68;6.18;;;;;;;11.02;68.09;100993.63;5090741;28;20410;-79
2022/04/12 09:09:27;;;;;;;7.13;5.65;;;;;;;11.12;68.09;101001.97;5119995;27;20328;-79
2022/04/12 09:12:02;;;;;;;10.48;5.40;;;;;;;11.24;67.87;100998.00;5118063;27;20027;-79
2022/04/12 09:14:52;;;;;;;6.32;5.40;;;;;;;11.35;67.17;100987.94;5103654;27;20776;-79
2022/04/12 09:17:39;;;;;;;6.22;5.25;;;;;;;11.49;66.67;100979.47;5111195;27;20028;-79
2022/04/12 09:20:11;;;;;;;5.75;5.25;;;;;;;11.58;66.87;100981.72;5124779;27;20031;-79
2022/04/12 09:22:37;;;;;;;7.35;4.78;;;;;;;11.69;66.51;100976.84;5128237;27;20279;-79
2022/04/12 09:25:04;;;;;;;7.35;5.25;;;;;;;11.77;66.12;100980.91;5113159;27;20047;-79
2022/04/12 09:27:31;;;;;;;11.27;5.40;;;;;;;11.84;66.20;100982.34;5088740;28;20134;-79
2022/04/12 09:30:05;;;;;;;6.38;5.35;;;;;;;11.92;66.07;100979.44;5108595;27;20049;-79
2022/04/12 09:32:39;;;;;;;5.00;4.55;;;;;;;12.04;65.98;100981.50;5108480;27;20039;-79
2022/04/12 09:35:06;;;;;;;5.97;5.22;;;;;;;12.12;67.09;100983.81;5103615;28;20102;-79
2022/04/12 09:37:33;;;;;;;5.35;3.95;;;;;;;12.17;66.58;100979.19;5113725;27;20036;-79
2022/04/12 09:39:59;;;;;;;5.60;5.03;;;;;;;12.26;66.71;100986.63;5082731;28;20027;-79
2022/04/12 09:42:48;;;;;;;7.00;4.55;;;;;;;12.37;66.63;100986.16;5103141;27;20046;-79
2022/04/12 09:45:14;;;;;;;13.68;4.65;;;;;;;12.46;66.23;100983.09;5112286;27;20043;-79
2022/04/12 09:47:41;;;;;;;10.05;4.45;;;;;;;12.57;65.61;100977.34;5090925;27;20031;-79
2022/04/12 09:50:08;;;;;;;5.72;4.70;;;;;;;12.68;65.83;100981.19;5094263;28;20060;-79
2022/04/12 09:52:33;;;;;;;5.20;4.72;;;;;;;12.76;66.77;100975.56;5107642;28;20043;-79
2022/04/12 09:54:59;;;;;;;10.50;5.25;;;;;;;12.84;66.27;100969.94;5122538;27;20228;-79
2022/04/12 09:57:25;;;;;;;6.95;4.80;;;;;;;12.97;65.75;100970.19;5089126;28;20062;-79
2022/04/12 09:59:56;;;;;;;6.38;4.60;;;;;;;13.11;65.14;100964.28;5067717;28;20016;-79
2022/04/12 10:02:26;;;;;;;7.22;4.78;;;;;;;13.28;63.98;100968.69;5106200;27;20062;-79
2022/04/12 10:04:53;;;;;;;6.95;4.40;;;;;;;13.34;63.86;100963.19;5118120;27;20070;-79
2022/04/12 10:07:21;;;;;;;4.90;4.50;;;;;;;13.42;64.03;100951.34;5084616;28;20259;-79
2022/04/12 10:09:52;;;;;;;11.98;4.35;;;;;;;13.47;63.93;100942.34;5115517;27;20051;-79
2022/04/12 10:12:27;;;;;;;4.22;3.83;;;;;;;13.49;63.83;100935.22;5112947;27;20330;-79
2022/04/12 10:14:52;;;;;;;7.68;4.97;;;;;;;13.57;63.80;100920.75;5124648;27;20079;-79
2022/04/12 10:17:18;;;;;;;8.50;5.60;;;;;;;13.65;63.62;100917.72;5113651;28;20050;-79
2022/04/12 10:19:44;;;;;;;7.20;5.30;;;;;;;13.71;64.23;100921.81;5062805;28;20055;-79
2022/04/12 10:22:12;;;;;;;5.47;4.97;;;;;;;13.72;64.34;100928.78;5093605;27;20097;-79
2022/04/12 10:24:38;;;;;;;9.73;5.47;;;;;;;13.74;63.42;100933.03;5124218;27;20038;-79
2022/04/12 10:27:05;;;;;;;24.88;5.82;;;;;;;13.77;63.92;100938.13;5097744;28;20348;-81
2022/04/12 10:29:31;;;;;;;15.70;5.13;;;;;;;13.76;64.13;100938.22;5084368;28;20058;-81
2022/04/12 10:32:03;;;;;;;13.02;5.10;;;;;;;13.74;64.93;100938.28;5087133;28;20027;-81
2022/04/12 10:34:29;;;;;;;7.43;4.82;;;;;;;13.74;64.71;100946.19;5093936;28;20320;-80
2022/04/12 10:37:04;;;;;;;6.32;5.18;;;;;;;13.76;64.46;100940.84;5104566;28;20107;-81
2022/04/12 10:39:55;;;;;;;5.72;4.72;;;;;;;13.82;64.15;100943.16;5103680;28;20036;-81
2022/04/12 10:42:26;;;;;;;7.30;4.78;;;;;;;13.87;63.63;100930.59;5108322;28;20323;-81
2022/04/12 10:44:53;;;;;;;6.55;5.20;;;;;;;13.94;63.50;100918.81;5080485;28;20348;-81
2022/04/12 10:47:33;;;;;;;8.25;5.22;;;;;;;13.95;63.71;100925.78;5107588;28;20047;-81
2022/04/12 10:50:01;;;;;;;6.05;5.40;;;;;;;14.00;63.24;100920.25;5116191;28;20023;-81
2022/04/12 10:52:52;;;;;;;5.93;5.00;;;;;;;14.05;64.35;100920.03;5108870;28;20318;-81
2022/04/12 10:55:37;;;;;;;6.05;4.50;;;;;;;14.12;64.04;100924.03;5108759;28;20039;-81
2022/04/12 10:58:13;;;;;;;6.28;4.72;;;;;;;14.15;63.57;100924.72;5095514;28;20081;-81
2022/04/12 11:00:44;;;;;;;4.82;4.43;;;;;;;14.18;63.90;100919.25;5098266;28;20297;-81
2022/04/12 11:03:12;;;;;;;5.82;4.85;;;;;;;14.23;64.01;100916.38;5094093;28;20090;-81
2022/04/12 11:05:42;;;;;;;5.27;4.77;;;;;;;14.28;64.26;100910.84;5097674;28;20036;-81
2022/04/12 11:08:13;;;;;;;7.03;4.65;;;;;;;14.33;64.55;100909.66;5124116;28;20285;-81
2022/04/12 11:10:39;;;;;;;7.15;5.03;;;;;;;14.36;64.61;100900.75;5112359;28;20076;-81
2022/04/12 11:13:11;;;;;;;5.97;5.20;;;;;;;14.40;64.43;100897.84;5088063;28;20036;-81
2022/04/12 11:15:38;;;;;;;4.85;4.47;;;;;;;14.49;65.04;100891.22;5089967;28;20023;-81
2022/04/12 11:18:09;;;;;;;4.65;4.22;;;;;;;14.56;64.50;100897.84;5123717;27;20271;-81
2022/04/12 11:20:36;;;;;;;4.97;4.47;;;;;;;14.61;63.70;100900.28;5121629;27;20033;-81
2022/04/12 11:23:11;;;;;;;7.32;4.38;;;;;;;14.64;63.46;100894.81;5104525;28;20027;-81
2022/04/12 11:25:50;;;;;;;7.00;4.65;;;;;;;14.70;63.76;100898.91;5104927;28;20268;-81
2022/04/12 11:28:22;;;;;;;4.85;4.35;;;;;;;14.75;64.11;100908.25;5104366;28;20032;-81
2022/04/12 11:30:58;;;;;;;4.43;4.13;;;;;;;14.90;63.16;100908.31;5108477;28;20284;-81
2022/04/12 11:33:29;;;;;;;6.75;4.38;;;;;;;15.00;62.80;100914.72;5099080;27;20036;-81
2022/04/12 11:35:56;;;;;;;5.90;4.03;;;;;;;15.10;63.07;100905.34;5104432;27;20027;-81